PWSweather.com
Personal Weather Stations
Station Observations
JANDJWAN1
Belterra, Austin, TX 78737

BelterraAustin, TX 78737

Lat: 30.2, Lon: -97.98

Elevation: 1100

Station Type:

http://weather.jandjw.com

High Low Average
Temperature 89.9°F32.2°C 64.8°F18.2°C 75.5°F24.2°C
Dew Point 66.0°F18.9°C 47.7°F8.7°C 57.6°F14.2°C
Winds 16.0 mph 25.7 kmh Calm Calm 6.0 mph S9.7 kmh S
Wind Gusts 24.0 mph38.6 kmh 2.0 mph3.2 kmh 12.0 mph19.3 kmh
Humidity 100% 27% 61%
Pressure 29.96 in1014.6 mb 29.79 in1008.8 mb -
Precipitation 1.70 in43.2 mm - -
Hour Temp Dew Point Humidity Winds Wind Gusts Pressure Precip Precip Rate Daily Precip Total
12:00 AM 69.1°F20.6°C 61.5°F16.4°C 77% 2.0 mph NNE3.2 kmh NNE 4.0 mph6.4 kmh 29.90 in1012.5 mb 0.35 in8.9 mm 0.00 in/hr0.0 mm/hr 0.35 in8.9 mm
12:05 AM 68.6°F20.3°C 62.8°F17.1°C 82% 1.0 mph WSW1.6 kmh WSW 5.0 mph8.0 kmh 29.90 in1012.5 mb 0.41 in10.4 mm 0.72 in/hr18.3 mm/hr 0.41 in10.4 mm
12:10 AM 68.4°F20.2°C 63.3°F17.4°C 84% Calm Calm 4.0 mph6.4 kmh 29.90 in1012.5 mb 0.48 in12.2 mm 0.84 in/hr21.3 mm/hr 0.48 in12.2 mm
12:15 AM 67.9°F19.9°C 63.8°F17.7°C 87% 5.0 mph N8.0 kmh N 6.0 mph9.7 kmh 29.90 in1012.5 mb 0.62 in15.7 mm 1.68 in/hr42.7 mm/hr 0.62 in15.7 mm
12:20 AM 67.4°F19.7°C 64.3°F17.9°C 90% 4.0 mph N6.4 kmh N 9.0 mph14.5 kmh 29.90 in1012.5 mb 0.78 in19.8 mm 1.92 in/hr48.8 mm/hr 0.78 in19.8 mm
12:25 AM 67.3°F19.6°C 65.2°F18.4°C 93% Calm Calm 5.0 mph8.0 kmh 29.90 in1012.5 mb 0.83 in21.1 mm 0.60 in/hr15.2 mm/hr 0.88 in22.4 mm
12:30 AM 67.1°F19.5°C 65.3°F18.5°C 94% Calm Calm 6.0 mph9.7 kmh 29.90 in1012.5 mb 0.84 in21.3 mm 0.12 in/hr3.0 mm/hr 0.95 in24.1 mm
12:35 AM 67.3°F19.6°C 65.8°F18.8°C 95% 12.0 mph WSW19.3 kmh WSW 13.0 mph20.9 kmh 29.90 in1012.5 mb 0.88 in22.4 mm 0.48 in/hr12.2 mm/hr 1.00 in25.4 mm
12:40 AM 67.1°F19.5°C 65.9°F18.8°C 96% 10.0 mph WSW16.1 kmh WSW 17.0 mph27.4 kmh 29.90 in1012.5 mb 0.94 in23.9 mm 0.72 in/hr18.3 mm/hr 1.07 in27.2 mm
12:45 AM 66.8°F19.3°C 65.9°F18.8°C 97% 13.0 mph WSW20.9 kmh WSW 24.0 mph38.6 kmh 29.95 in1014.2 mb 0.98 in24.9 mm 0.48 in/hr12.2 mm/hr 1.14 in29.0 mm
12:50 AM 66.4°F19.1°C 65.8°F18.8°C 98% 3.0 mph SSW4.8 kmh SSW 14.0 mph22.5 kmh 29.95 in1014.2 mb 1.06 in26.9 mm 0.96 in/hr24.4 mm/hr 1.26 in32.0 mm
12:55 AM 66.3°F19.1°C 66.0°F18.9°C 99% 3.0 mph SE4.8 kmh SE 9.0 mph14.5 kmh 29.95 in1014.2 mb 1.06 in26.9 mm 0.00 in/hr0.0 mm/hr 1.37 in34.8 mm
01:00 AM 66.1°F18.9°C 66.0°F18.9°C 100% 1.0 mph S1.6 kmh S 7.0 mph11.3 kmh 29.96 in1014.6 mb 1.10 in27.9 mm 0.04 in/hr1.0 mm/hr 1.45 in36.8 mm
01:05 AM 66.0°F18.9°C 65.9°F18.8°C 100% 7.0 mph S11.3 kmh S 7.0 mph11.3 kmh 29.96 in1014.6 mb 1.09 in27.7 mm 0.00 in/hr0.0 mm/hr 1.50 in38.1 mm
01:10 AM 66.0°F18.9°C 65.9°F18.8°C 100% 3.0 mph SSW4.8 kmh SSW 7.0 mph11.3 kmh 29.96 in1014.6 mb 1.04 in26.4 mm 0.00 in/hr0.0 mm/hr 1.52 in38.6 mm
01:15 AM 66.0°F18.9°C 65.9°F18.8°C 100% 3.0 mph WSW4.8 kmh WSW 6.0 mph9.7 kmh 29.93 in1013.5 mb 0.92 in23.4 mm 0.00 in/hr0.0 mm/hr 1.54 in39.1 mm
01:20 AM 65.6°F18.7°C 65.5°F18.6°C 100% 9.0 mph W14.5 kmh W 17.0 mph27.4 kmh 29.93 in1013.5 mb 0.76 in19.3 mm 0.00 in/hr0.0 mm/hr 1.54 in39.1 mm
01:25 AM 65.3°F18.5°C 63.8°F17.7°C 95% 10.0 mph WSW16.1 kmh WSW 14.0 mph22.5 kmh 29.93 in1013.5 mb 0.67 in17.0 mm 0.00 in/hr0.0 mm/hr 1.55 in39.4 mm
01:30 AM 65.5°F18.6°C 62.4°F16.9°C 90% 14.0 mph WSW22.5 kmh WSW 21.0 mph33.8 kmh 29.86 in1011.2 mb 0.61 in15.5 mm 0.00 in/hr0.0 mm/hr 1.56 in39.6 mm
01:35 AM 67.1°F19.5°C 55.3°F12.9°C 66% 9.0 mph WSW14.5 kmh WSW 20.0 mph32.2 kmh 29.86 in1011.2 mb 0.56 in14.2 mm 0.00 in/hr0.0 mm/hr 1.56 in39.6 mm
01:40 AM 70.3°F21.3°C 48.5°F9.2°C 46% 6.0 mph N9.7 kmh N 16.0 mph25.7 kmh 29.86 in1011.2 mb 0.49 in12.4 mm 0.00 in/hr0.0 mm/hr 1.56 in39.6 mm
01:45 AM 72.7°F22.6°C 50.1°F10.1°C 45% 2.0 mph NE3.2 kmh NE 12.0 mph19.3 kmh 29.87 in1011.5 mb 0.42 in10.7 mm 0.00 in/hr0.0 mm/hr 1.56 in39.6 mm
01:50 AM 71.6°F22.0°C 54.5°F12.5°C 55% 9.0 mph N14.5 kmh N 12.0 mph19.3 kmh 29.87 in1011.5 mb 0.30 in7.6 mm 0.00 in/hr0.0 mm/hr 1.56 in39.6 mm
01:55 AM 70.9°F21.6°C 52.9°F11.6°C 53% 8.0 mph N12.9 kmh N 11.0 mph17.7 kmh 29.87 in1011.5 mb 0.19 in4.8 mm 0.00 in/hr0.0 mm/hr 1.56 in39.6 mm
02:00 AM 72.1°F22.3°C 51.3°F10.7°C 48% 3.0 mph NE4.8 kmh NE 12.0 mph19.3 kmh 29.85 in1010.8 mb 0.11 in2.8 mm 0.00 in/hr0.0 mm/hr 1.56 in39.6 mm
02:05 AM 73.2°F22.9°C 49.9°F9.9°C 44% 6.0 mph N9.7 kmh N 14.0 mph22.5 kmh 29.85 in1010.8 mb 0.06 in1.5 mm 0.00 in/hr0.0 mm/hr 1.56 in39.6 mm
02:10 AM 74.2°F23.4°C 50.2°F10.1°C 43% 10.0 mph NNE16.1 kmh NNE 10.0 mph16.1 kmh 29.85 in1010.8 mb 0.04 in1.0 mm 0.00 in/hr0.0 mm/hr 1.56 in39.6 mm
02:15 AM 74.4°F23.6°C 47.8°F8.8°C 39% 4.0 mph NNE6.4 kmh NNE 12.0 mph19.3 kmh 29.84 in1010.5 mb 0.02 in0.5 mm 0.00 in/hr0.0 mm/hr 1.56 in39.6 mm
02:20 AM 75.3°F24.1°C 47.9°F8.8°C 38% 6.0 mph N9.7 kmh N 14.0 mph22.5 kmh 29.84 in1010.5 mb 0.02 in0.5 mm 0.00 in/hr0.0 mm/hr 1.56 in39.6 mm
02:25 AM 75.4°F24.1°C 48.0°F8.9°C 38% 2.0 mph NNE3.2 kmh NNE 10.0 mph16.1 kmh 29.84 in1010.5 mb 0.01 in0.3 mm 0.00 in/hr0.0 mm/hr 1.56 in39.6 mm
02:30 AM 75.3°F24.1°C 47.9°F8.8°C 38% Calm Calm 4.0 mph6.4 kmh 29.82 in1009.8 mb 0.00 in0.0 mm 0.00 in/hr0.0 mm/hr 1.56 in39.6 mm
02:35 AM 75.1°F23.9°C 52.2°F11.2°C 45% Calm Calm 4.0 mph6.4 kmh 29.82 in1009.8 mb 0.00 in0.0 mm 0.00 in/hr0.0 mm/hr 1.56 in39.6 mm
02:40 AM 73.2°F22.9°C 52.3°F11.3°C 48% Calm Calm 5.0 mph8.0 kmh 29.82 in1009.8 mb 0.00 in0.0 mm 0.00 in/hr0.0 mm/hr 1.56 in39.6 mm
02:45 AM 72.3°F22.4°C 54.1°F12.3°C 53% 2.0 mph NE3.2 kmh NE 3.0 mph4.8 kmh 29.85 in1010.8 mb 0.01 in0.3 mm 0.12 in/hr3.0 mm/hr 1.57 in39.9 mm
02:50 AM 71.1°F21.7°C 54.0°F12.2°C 55% 3.0 mph NE4.8 kmh NE 4.0 mph6.4 kmh 29.85 in1010.8 mb 0.01 in0.3 mm 0.00 in/hr0.0 mm/hr 1.57 in39.9 mm
02:55 AM 70.3°F21.3°C 54.8°F12.7°C 58% Calm Calm 6.0 mph9.7 kmh 29.85 in1010.8 mb 0.01 in0.3 mm 0.00 in/hr0.0 mm/hr 1.57 in39.9 mm
03:00 AM 69.9°F21.1°C 54.4°F12.4°C 58% 1.0 mph NNE1.6 kmh NNE 3.0 mph4.8 kmh 29.87 in1011.5 mb 0.02 in0.5 mm 0.01 in/hr0.3 mm/hr 1.58 in40.1 mm
03:05 AM 70.3°F21.3°C 54.8°F12.7°C 58% 3.0 mph NNE4.8 kmh NNE 5.0 mph8.0 kmh 29.87 in1011.5 mb 0.03 in0.8 mm 0.12 in/hr3.0 mm/hr 1.59 in40.4 mm
03:10 AM 70.4°F21.3°C 53.4°F11.9°C 55% Calm Calm 4.0 mph6.4 kmh 29.87 in1011.5 mb 0.03 in0.8 mm 0.00 in/hr0.0 mm/hr 1.59 in40.4 mm
03:15 AM 69.6°F20.9°C 54.6°F12.6°C 59% 4.0 mph NE6.4 kmh NE 7.0 mph11.3 kmh 29.88 in1011.9 mb 0.03 in0.8 mm 0.00 in/hr0.0 mm/hr 1.59 in40.4 mm
03:20 AM 69.8°F21.0°C 52.8°F11.6°C 55% 4.0 mph NE6.4 kmh NE 7.0 mph11.3 kmh 29.88 in1011.9 mb 0.04 in1.0 mm 0.12 in/hr3.0 mm/hr 1.60 in40.6 mm
03:25 AM 70.8°F21.6°C 52.2°F11.2°C 52% 6.0 mph ENE9.7 kmh ENE 9.0 mph14.5 kmh 29.88 in1011.9 mb 0.04 in1.0 mm 0.00 in/hr0.0 mm/hr 1.60 in40.6 mm
03:30 AM 69.3°F20.7°C 54.8°F12.7°C 60% 8.0 mph S12.9 kmh S 9.0 mph14.5 kmh 29.87 in1011.5 mb 0.04 in1.0 mm 0.00 in/hr0.0 mm/hr 1.60 in40.6 mm
03:35 AM 68.3°F20.2°C 55.6°F13.1°C 64% 3.0 mph SE4.8 kmh SE 12.0 mph19.3 kmh 29.87 in1011.5 mb 0.04 in1.0 mm 0.00 in/hr0.0 mm/hr 1.60 in40.6 mm
03:40 AM 68.1°F20.1°C 55.4°F13.0°C 64% 5.0 mph SW8.0 kmh SW 15.0 mph24.1 kmh 29.87 in1011.5 mb 0.04 in1.0 mm 0.00 in/hr0.0 mm/hr 1.60 in40.6 mm
03:45 AM 68.3°F20.2°C 56.0°F13.3°C 65% 3.0 mph SSW4.8 kmh SSW 9.0 mph14.5 kmh 29.89 in1012.2 mb 0.03 in0.8 mm 0.00 in/hr0.0 mm/hr 1.60 in40.6 mm
03:50 AM 68.1°F20.1°C 55.8°F13.2°C 65% 2.0 mph SSW3.2 kmh SSW 6.0 mph9.7 kmh 29.89 in1012.2 mb 0.03 in0.8 mm 0.00 in/hr0.0 mm/hr 1.60 in40.6 mm
03:55 AM 67.8°F19.9°C 56.4°F13.6°C 67% 2.0 mph S3.2 kmh S 7.0 mph11.3 kmh 29.89 in1012.2 mb 0.03 in0.8 mm 0.00 in/hr0.0 mm/hr 1.60 in40.6 mm
04:00 AM 67.4°F19.7°C 56.8°F13.8°C 69% 4.0 mph ESE6.4 kmh ESE 5.0 mph8.0 kmh 29.87 in1011.5 mb 0.03 in0.8 mm 0.00 in/hr0.0 mm/hr 1.61 in40.9 mm
04:05 AM 66.9°F19.4°C 57.5°F14.2°C 72% 1.0 mph E1.6 kmh E 4.0 mph6.4 kmh 29.87 in1011.5 mb 0.02 in0.5 mm 0.00 in/hr0.0 mm/hr 1.61 in40.9 mm
04:10 AM 66.8°F19.3°C 59.7°F15.4°C 78% 3.0 mph E4.8 kmh E 5.0 mph8.0 kmh 29.87 in1011.5 mb 0.03 in0.8 mm 0.12 in/hr3.0 mm/hr 1.62 in41.1 mm
04:15 AM 66.4°F19.1°C 60.7°F15.9°C 82% 4.0 mph E6.4 kmh E 5.0 mph8.0 kmh 29.86 in1011.2 mb 0.03 in0.8 mm 0.00 in/hr0.0 mm/hr 1.62 in41.1 mm
04:20 AM 66.3°F19.1°C 61.6°F16.4°C 85% 2.0 mph NNE3.2 kmh NNE 7.0 mph11.3 kmh 29.86 in1011.2 mb 0.03 in0.8 mm 0.00 in/hr0.0 mm/hr 1.63 in41.4 mm
04:25 AM 66.1°F18.9°C 62.1°F16.7°C 87% 2.0 mph E3.2 kmh E 4.0 mph6.4 kmh 29.86 in1011.2 mb 0.04 in1.0 mm 0.12 in/hr3.0 mm/hr 1.64 in41.7 mm
04:30 AM 66.1°F18.9°C 63.0°F17.2°C 90% 3.0 mph SE4.8 kmh SE 5.0 mph8.0 kmh 29.87 in1011.5 mb 0.04 in1.0 mm 0.00 in/hr0.0 mm/hr 1.64 in41.7 mm
04:35 AM 66.1°F18.9°C 63.3°F17.4°C 91% Calm Calm 4.0 mph6.4 kmh 29.87 in1011.5 mb 0.04 in1.0 mm 0.00 in/hr0.0 mm/hr 1.64 in41.7 mm
04:40 AM 66.1°F18.9°C 63.7°F17.6°C 92% 2.0 mph ESE3.2 kmh ESE 5.0 mph8.0 kmh 29.87 in1011.5 mb 0.04 in1.0 mm 0.00 in/hr0.0 mm/hr 1.64 in41.7 mm
04:45 AM 66.1°F18.9°C 64.0°F17.8°C 93% 2.0 mph E3.2 kmh E 12.0 mph19.3 kmh 29.84 in1010.5 mb 0.05 in1.3 mm 0.12 in/hr3.0 mm/hr 1.65 in41.9 mm
04:50 AM 66.0°F18.9°C 64.2°F17.9°C 94% 6.0 mph E9.7 kmh E 13.0 mph20.9 kmh 29.84 in1010.5 mb 0.05 in1.3 mm 0.00 in/hr0.0 mm/hr 1.65 in41.9 mm
04:55 AM 65.8°F18.8°C 64.3°F17.9°C 95% 5.0 mph ESE8.0 kmh ESE 11.0 mph17.7 kmh 29.84 in1010.5 mb 0.05 in1.3 mm 0.00 in/hr0.0 mm/hr 1.65 in41.9 mm
05:00 AM 65.8°F18.8°C 64.3°F17.9°C 95% 15.0 mph SSW24.1 kmh SSW 15.0 mph24.1 kmh 29.87 in1011.5 mb 0.04 in1.0 mm 0.00 in/hr0.0 mm/hr 1.65 in41.9 mm
05:05 AM 66.0°F18.9°C 64.5°F18.1°C 95% 12.0 mph SSW19.3 kmh SSW 18.0 mph29.0 kmh 29.87 in1011.5 mb 0.04 in1.0 mm 0.00 in/hr0.0 mm/hr 1.65 in41.9 mm
05:10 AM 65.8°F18.8°C 64.6°F18.1°C 96% 13.0 mph S20.9 kmh S 20.0 mph32.2 kmh 29.87 in1011.5 mb 0.03 in0.8 mm 0.00 in/hr0.0 mm/hr 1.65 in41.9 mm
05:15 AM 65.6°F18.7°C 64.4°F18.0°C 96% 5.0 mph SE8.0 kmh SE 17.0 mph27.4 kmh 29.86 in1011.2 mb 0.04 in1.0 mm 0.12 in/hr3.0 mm/hr 1.66 in42.2 mm
05:20 AM 65.6°F18.7°C 64.7°F18.2°C 97% 9.0 mph SW14.5 kmh SW 19.0 mph30.6 kmh 29.86 in1011.2 mb 0.03 in0.8 mm 0.00 in/hr0.0 mm/hr 1.66 in42.2 mm
05:25 AM 65.6°F18.7°C 65.0°F18.3°C 98% 9.0 mph S14.5 kmh S 17.0 mph27.4 kmh 29.86 in1011.2 mb 0.02 in0.5 mm 0.00 in/hr0.0 mm/hr 1.66 in42.2 mm
05:30 AM 65.5°F18.6°C 64.9°F18.3°C 98% 10.0 mph S16.1 kmh S 20.0 mph32.2 kmh 29.86 in1011.2 mb 0.02 in0.5 mm 0.00 in/hr0.0 mm/hr 1.66 in42.2 mm
05:35 AM 65.5°F18.6°C 64.9°F18.3°C 98% 8.0 mph SSW12.9 kmh SSW 21.0 mph33.8 kmh 29.86 in1011.2 mb 0.02 in0.5 mm 0.00 in/hr0.0 mm/hr 1.66 in42.2 mm
05:40 AM 65.3°F18.5°C 64.7°F18.2°C 98% 15.0 mph SSE24.1 kmh SSE 21.0 mph33.8 kmh 29.86 in1011.2 mb 0.02 in0.5 mm 0.00 in/hr0.0 mm/hr 1.66 in42.2 mm
05:45 AM 65.2°F18.4°C 64.6°F18.1°C 98% 7.0 mph SW11.3 kmh SW 17.0 mph27.4 kmh 29.86 in1011.2 mb 0.01 in0.3 mm 0.00 in/hr0.0 mm/hr 1.66 in42.2 mm
05:50 AM 65.0°F18.3°C 64.1°F17.8°C 97% 7.0 mph S11.3 kmh S 21.0 mph33.8 kmh 29.86 in1011.2 mb 0.01 in0.3 mm 0.00 in/hr0.0 mm/hr 1.66 in42.2 mm
05:55 AM 64.8°F18.2°C 63.6°F17.6°C 96% 6.0 mph S9.7 kmh S 18.0 mph29.0 kmh 29.86 in1011.2 mb 0.01 in0.3 mm 0.00 in/hr0.0 mm/hr 1.66 in42.2 mm
06:00 AM 64.8°F18.2°C 63.3°F17.4°C 95% 9.0 mph S14.5 kmh S 16.0 mph25.7 kmh 29.86 in1011.2 mb 0.01 in0.3 mm 0.00 in/hr0.0 mm/hr 1.66 in42.2 mm
06:05 AM 64.8°F18.2°C 63.3°F17.4°C 95% 4.0 mph SSE6.4 kmh SSE 17.0 mph27.4 kmh 29.86 in1011.2 mb 0.01 in0.3 mm 0.00 in/hr0.0 mm/hr 1.66 in42.2 mm
06:10 AM 64.8°F18.2°C 63.3°F17.4°C 95% 6.0 mph S9.7 kmh S 16.0 mph25.7 kmh 29.86 in1011.2 mb 0.01 in0.3 mm 0.00 in/hr0.0 mm/hr 1.66 in42.2 mm
06:15 AM 64.8°F18.2°C 63.0°F17.2°C 94% 14.0 mph SSE22.5 kmh SSE 16.0 mph25.7 kmh 29.86 in1011.2 mb 0.00 in0.0 mm 0.00 in/hr0.0 mm/hr 1.66 in42.2 mm
06:20 AM 65.0°F18.3°C 62.9°F17.2°C 93% 4.0 mph S6.4 kmh S 14.0 mph22.5 kmh 29.86 in1011.2 mb 0.00 in0.0 mm 0.00 in/hr0.0 mm/hr 1.66 in42.2 mm
06:25 AM 65.2°F18.4°C 62.8°F17.1°C 92% 4.0 mph S6.4 kmh S 16.0 mph25.7 kmh 29.86 in1011.2 mb 0.00 in0.0 mm 0.00 in/hr0.0 mm/hr 1.66 in42.2 mm
06:30 AM 65.3°F18.5°C 62.6°F17.0°C 91% 6.0 mph SE9.7 kmh SE 17.0 mph27.4 kmh 29.86 in1011.2 mb 0.00 in0.0 mm 0.00 in/hr0.0 mm/hr 1.66 in42.2 mm
06:35 AM 65.3°F18.5°C 62.6°F17.0°C 91% 5.0 mph SSW8.0 kmh SSW 15.0 mph24.1 kmh 29.86 in1011.2 mb 0.00 in0.0 mm 0.00 in/hr0.0 mm/hr 1.66 in42.2 mm
06:40 AM 65.3°F18.5°C 62.6°F17.0°C 91% 1.0 mph S1.6 kmh S 16.0 mph25.7 kmh 29.86 in1011.2 mb 0.00 in0.0 mm 0.00 in/hr0.0 mm/hr 1.66 in42.2 mm
06:45 AM 65.3°F18.5°C 62.6°F17.0°C 91% 1.0 mph SSW1.6 kmh SSW 6.0 mph9.7 kmh 29.88 in1011.9 mb 0.00 in0.0 mm 0.00 in/hr0.0 mm/hr 1.66 in42.2 mm
06:50 AM 65.3°F18.5°C 62.6°F17.0°C 91% 2.0 mph S3.2 kmh S 7.0 mph11.3 kmh 29.88 in1011.9 mb 0.00 in0.0 mm 0.00 in/hr0.0 mm/hr 1.66 in42.2 mm
06:55 AM 65.3°F18.5°C 62.2°F16.8°C 90% 3.0 mph S4.8 kmh S 7.0 mph11.3 kmh 29.88 in1011.9 mb 0.00 in0.0 mm 0.00 in/hr0.0 mm/hr 1.66 in42.2 mm
07:00 AM 65.5°F18.6°C 62.4°F16.9°C 90% 7.0 mph SW11.3 kmh SW 10.0 mph16.1 kmh 29.88 in1011.9 mb 0.00 in0.0 mm 0.00 in/hr0.0 mm/hr 1.66 in42.2 mm
07:05 AM 65.6°F18.7°C 62.5°F16.9°C 90% 9.0 mph WSW14.5 kmh WSW 12.0 mph19.3 kmh 29.88 in1011.9 mb 0.00 in0.0 mm 0.00 in/hr0.0 mm/hr 1.66 in42.2 mm
07:10 AM 65.6°F18.7°C 62.2°F16.8°C 89% 3.0 mph SW4.8 kmh SW 12.0 mph19.3 kmh 29.88 in1011.9 mb 0.01 in0.3 mm 0.12 in/hr3.0 mm/hr 1.67 in42.4 mm
07:15 AM 65.6°F18.7°C 62.2°F16.8°C 89% 3.0 mph SW4.8 kmh SW 8.0 mph12.9 kmh 29.90 in1012.5 mb 0.01 in0.3 mm 0.00 in/hr0.0 mm/hr 1.67 in42.4 mm
07:20 AM 65.6°F18.7°C 62.5°F16.9°C 90% 9.0 mph SW14.5 kmh SW 12.0 mph19.3 kmh 29.90 in1012.5 mb 0.01 in0.3 mm 0.00 in/hr0.0 mm/hr 1.67 in42.4 mm
07:25 AM 65.5°F18.6°C 62.4°F16.9°C 90% 9.0 mph SW14.5 kmh SW 12.0 mph19.3 kmh 29.90 in1012.5 mb 0.01 in0.3 mm 0.00 in/hr0.0 mm/hr 1.67 in42.4 mm
07:30 AM 65.5°F18.6°C 62.4°F16.9°C 90% 5.0 mph S8.0 kmh S 12.0 mph19.3 kmh 29.92 in1013.2 mb 0.01 in0.3 mm 0.00 in/hr0.0 mm/hr 1.67 in42.4 mm
07:35 AM 65.6°F18.7°C 62.2°F16.8°C 89% 6.0 mph SSW9.7 kmh SSW 10.0 mph16.1 kmh 29.92 in1013.2 mb 0.01 in0.3 mm 0.00 in/hr0.0 mm/hr 1.67 in42.4 mm
07:40 AM 65.6°F18.7°C 62.2°F16.8°C 89% 6.0 mph SW9.7 kmh SW 12.0 mph19.3 kmh 29.92 in1013.2 mb 0.01 in0.3 mm 0.00 in/hr0.0 mm/hr 1.67 in42.4 mm
07:45 AM 65.8°F18.8°C 61.8°F16.6°C 87% 5.0 mph SSW8.0 kmh SSW 11.0 mph17.7 kmh 29.92 in1013.2 mb 0.02 in0.5 mm 0.12 in/hr3.0 mm/hr 1.68 in42.7 mm
07:50 AM 65.8°F18.8°C 61.8°F16.6°C 87% Calm Calm 6.0 mph9.7 kmh 29.92 in1013.2 mb 0.02 in0.5 mm 0.00 in/hr0.0 mm/hr 1.68 in42.7 mm
07:55 AM 65.8°F18.8°C 61.8°F16.6°C 87% 3.0 mph SSW4.8 kmh SSW 4.0 mph6.4 kmh 29.92 in1013.2 mb 0.02 in0.5 mm 0.00 in/hr0.0 mm/hr 1.68 in42.7 mm
08:00 AM 66.0°F18.9°C 61.0°F16.1°C 84% 4.0 mph SSW6.4 kmh SSW 12.0 mph19.3 kmh 29.94 in1013.9 mb 0.02 in0.5 mm 0.00 in/hr0.0 mm/hr 1.68 in42.7 mm
08:05 AM 66.3°F19.1°C 60.9°F16.1°C 83% 7.0 mph S11.3 kmh S 10.0 mph16.1 kmh 29.94 in1013.9 mb 0.02 in0.5 mm 0.00 in/hr0.0 mm/hr 1.68 in42.7 mm
08:10 AM 66.3°F19.1°C 60.9°F16.1°C 83% 1.0 mph S1.6 kmh S 10.0 mph16.1 kmh 29.94 in1013.9 mb 0.02 in0.5 mm 0.00 in/hr0.0 mm/hr 1.69 in42.9 mm
08:15 AM 66.0°F18.9°C 61.0°F16.1°C 84% Calm Calm 5.0 mph8.0 kmh 29.93 in1013.5 mb 0.02 in0.5 mm 0.00 in/hr0.0 mm/hr 1.69 in42.9 mm
08:20 AM 66.0°F18.9°C 61.0°F16.1°C 84% 2.0 mph S3.2 kmh S 5.0 mph8.0 kmh 29.93 in1013.5 mb 0.02 in0.5 mm 0.00 in/hr0.0 mm/hr 1.69 in42.9 mm
08:25 AM 66.0°F18.9°C 61.0°F16.1°C 84% 3.0 mph S4.8 kmh S 5.0 mph8.0 kmh 29.93 in1013.5 mb 0.02 in0.5 mm 0.00 in/hr0.0 mm/hr 1.69 in42.9 mm
08:30 AM 65.8°F18.8°C 61.1°F16.2°C 85% Calm Calm 3.0 mph4.8 kmh 29.90 in1012.5 mb 0.03 in0.8 mm 0.12 in/hr3.0 mm/hr 1.70 in43.2 mm
08:35 AM 65.6°F18.7°C 61.2°F16.2°C 86% 2.0 mph S3.2 kmh S 3.0 mph4.8 kmh 29.90 in1012.5 mb 0.03 in0.8 mm 0.00 in/hr0.0 mm/hr 1.70 in43.2 mm
08:40 AM 65.6°F18.7°C 61.6°F16.4°C 87% Calm Calm 2.0 mph3.2 kmh 29.90 in1012.5 mb 0.03 in0.8 mm 0.00 in/hr0.0 mm/hr 1.70 in43.2 mm
08:45 AM 65.5°F18.6°C 61.8°F16.6°C 88% 2.0 mph S3.2 kmh S 2.0 mph3.2 kmh 29.89 in1012.2 mb 0.02 in0.5 mm 0.00 in/hr0.0 mm/hr 1.70 in43.2 mm
08:50 AM 65.6°F18.7°C 61.9°F16.6°C 88% 2.0 mph S3.2 kmh S 3.0 mph4.8 kmh 29.89 in1012.2 mb 0.02 in0.5 mm 0.00 in/hr0.0 mm/hr 1.70 in43.2 mm
08:55 AM 65.8°F18.8°C 62.4°F16.9°C 89% 2.0 mph S3.2 kmh S 3.0 mph4.8 kmh 29.89 in1012.2 mb 0.02 in0.5 mm 0.00 in/hr0.0 mm/hr 1.70 in43.2 mm
09:00 AM 66.0°F18.9°C 62.9°F17.2°C 90% Calm Calm 5.0 mph8.0 kmh 29.87 in1011.5 mb 0.02 in0.5 mm 0.00 in/hr0.0 mm/hr 1.70 in43.2 mm
09:05 AM 66.3°F19.1°C 63.9°F17.7°C 92% 3.0 mph S4.8 kmh S 5.0 mph8.0 kmh 29.87 in1011.5 mb 0.02 in0.5 mm 0.00 in/hr0.0 mm/hr 1.70 in43.2 mm
09:10 AM 66.4°F19.1°C 63.9°F17.7°C 92% 2.0 mph S3.2 kmh S 3.0 mph4.8 kmh 29.87 in1011.5 mb 0.01 in0.3 mm 0.00 in/hr0.0 mm/hr 1.70 in43.2 mm
09:15 AM 66.8°F19.3°C 64.0°F17.8°C 91% Calm Calm 3.0 mph4.8 kmh 29.85 in1010.8 mb 0.01 in0.3 mm 0.00 in/hr0.0 mm/hr 1.70 in43.2 mm
09:20 AM 66.8°F19.3°C 63.7°F17.6°C 90% Calm Calm 3.0 mph4.8 kmh 29.85 in1010.8 mb 0.01 in0.3 mm 0.00 in/hr0.0 mm/hr 1.70 in43.2 mm
09:25 AM 67.3°F19.6°C 64.5°F18.1°C 91% 1.0 mph S1.6 kmh S 3.0 mph4.8 kmh 29.85 in1010.8 mb 0.01 in0.3 mm 0.00 in/hr0.0 mm/hr 1.70 in43.2 mm
09:30 AM 67.8°F19.9°C 64.7°F18.2°C 90% 1.0 mph S1.6 kmh S 4.0 mph6.4 kmh 29.83 in1010.2 mb 0.00 in0.0 mm 0.00 in/hr0.0 mm/hr 1.70 in43.2 mm
09:35 AM 68.4°F20.2°C 64.3°F17.9°C 87% 3.0 mph S4.8 kmh S 4.0 mph6.4 kmh 29.83 in1010.2 mb 0.00 in0.0 mm 0.00 in/hr0.0 mm/hr 1.70 in43.2 mm
09:40 AM 69.6°F20.9°C 65.5°F18.6°C 87% 3.0 mph S4.8 kmh S 5.0 mph8.0 kmh 29.83 in1010.2 mb 0.00 in0.0 mm 0.00 in/hr0.0 mm/hr 1.70 in43.2 mm
09:45 AM 70.8°F21.6°C 65.0°F18.3°C 82% 3.0 mph S4.8 kmh S 6.0 mph9.7 kmh 29.81 in1009.5 mb 0.00 in0.0 mm 0.00 in/hr0.0 mm/hr 1.70 in43.2 mm
09:50 AM 72.1°F22.3°C 64.4°F18.0°C 77% 3.0 mph SSW4.8 kmh SSW 6.0 mph9.7 kmh 29.81 in1009.5 mb 0.00 in0.0 mm 0.00 in/hr0.0 mm/hr 1.70 in43.2 mm
09:55 AM 73.7°F23.2°C 63.2°F17.3°C 70% 6.0 mph SW9.7 kmh SW 9.0 mph14.5 kmh 29.81 in1009.5 mb 0.00 in0.0 mm 0.00 in/hr0.0 mm/hr 1.70 in43.2 mm
10:00 AM 75.3°F24.1°C 62.2°F16.8°C 64% 10.0 mph SW16.1 kmh SW 13.0 mph20.9 kmh 29.79 in1008.8 mb 0.00 in0.0 mm 0.00 in/hr0.0 mm/hr 1.70 in43.2 mm
10:05 AM 76.3°F24.6°C 61.8°F16.6°C 61% 2.0 mph WSW3.2 kmh WSW 11.0 mph17.7 kmh 29.79 in1008.8 mb 0.00 in0.0 mm 0.00 in/hr0.0 mm/hr 1.70 in43.2 mm
10:10 AM 77.9°F25.5°C 63.8°F17.7°C 62% Calm Calm 5.0 mph8.0 kmh 29.79 in1008.8 mb 0.00 in0.0 mm 0.00 in/hr0.0 mm/hr 1.70 in43.2 mm
10:15 AM 78.5°F25.8°C 57.1°F13.9°C 48% 6.0 mph SW9.7 kmh SW 9.0 mph14.5 kmh 29.81 in1009.5 mb 0.00 in0.0 mm 0.00 in/hr0.0 mm/hr 1.70 in43.2 mm
10:20 AM 79.6°F26.4°C 61.4°F16.3°C 54% Calm Calm 6.0 mph9.7 kmh 29.81 in1009.5 mb 0.00 in0.0 mm 0.00 in/hr0.0 mm/hr 1.70 in43.2 mm
10:25 AM 80.3°F26.8°C 58.7°F14.8°C 48% 6.0 mph SW9.7 kmh SW 10.0 mph16.1 kmh 29.81 in1009.5 mb 0.00 in0.0 mm 0.00 in/hr0.0 mm/hr 1.70 in43.2 mm
10:30 AM 79.4°F26.3°C 60.2°F15.7°C 52% 4.0 mph S6.4 kmh S 10.0 mph16.1 kmh 29.83 in1010.2 mb 0.00 in0.0 mm 0.00 in/hr0.0 mm/hr 1.70 in43.2 mm
10:35 AM 78.5°F25.8°C 60.9°F16.1°C 55% 3.0 mph SW4.8 kmh SW 12.0 mph19.3 kmh 29.83 in1010.2 mb 0.00 in0.0 mm 0.00 in/hr0.0 mm/hr 1.70 in43.2 mm
10:40 AM 78.1°F25.6°C 58.4°F14.7°C 51% 12.0 mph SW19.3 kmh SW 18.0 mph29.0 kmh 29.83 in1010.2 mb 0.00 in0.0 mm 0.00 in/hr0.0 mm/hr 1.70 in43.2 mm
10:45 AM 78.1°F25.6°C 53.7°F12.1°C 43% 6.0 mph SW9.7 kmh SW 15.0 mph24.1 kmh 29.84 in1010.5 mb 0.00 in0.0 mm 0.00 in/hr0.0 mm/hr 1.70 in43.2 mm
10:50 AM 77.9°F25.5°C 54.8°F12.7°C 45% 10.0 mph WSW16.1 kmh WSW 15.0 mph24.1 kmh 29.84 in1010.5 mb 0.00 in0.0 mm 0.00 in/hr0.0 mm/hr 1.70 in43.2 mm
10:55 AM 77.7°F25.4°C 55.8°F13.2°C 47% 6.0 mph WSW9.7 kmh WSW 11.0 mph17.7 kmh 29.84 in1010.5 mb 0.00 in0.0 mm 0.00 in/hr0.0 mm/hr 1.70 in43.2 mm
11:00 AM 77.4°F25.2°C 56.1°F13.4°C 48% 9.0 mph WSW14.5 kmh WSW 11.0 mph17.7 kmh 29.83 in1010.2 mb 0.00 in0.0 mm 0.00 in/hr0.0 mm/hr 1.70 in43.2 mm
11:05 AM 78.3°F25.7°C 55.7°F13.2°C 46% 3.0 mph WSW4.8 kmh WSW 11.0 mph17.7 kmh 29.83 in1010.2 mb 0.00 in0.0 mm 0.00 in/hr0.0 mm/hr 1.70 in43.2 mm
11:10 AM 79.4°F26.3°C 54.9°F12.7°C 43% 7.0 mph WSW11.3 kmh WSW 12.0 mph19.3 kmh 29.83 in1010.2 mb 0.00 in0.0 mm 0.00 in/hr0.0 mm/hr 1.70 in43.2 mm
11:15 AM 81.1°F27.3°C 55.8°F13.2°C 42% 6.0 mph WSW9.7 kmh WSW 12.0 mph19.3 kmh 29.83 in1010.2 mb 0.00 in0.0 mm 0.00 in/hr0.0 mm/hr 1.70 in43.2 mm
11:20 AM 81.6°F27.6°C 54.2°F12.3°C 39% 11.0 mph SW17.7 kmh SW 15.0 mph24.1 kmh 29.83 in1010.2 mb 0.00 in0.0 mm 0.00 in/hr0.0 mm/hr 1.70 in43.2 mm
11:25 AM 82.4°F28.0°C 53.4°F11.9°C 37% 9.0 mph SW14.5 kmh SW 15.0 mph24.1 kmh 29.83 in1010.2 mb 0.00 in0.0 mm 0.00 in/hr0.0 mm/hr 1.70 in43.2 mm
11:30 AM 83.8°F28.8°C 50.7°F10.4°C 32% 5.0 mph S8.0 kmh S 15.0 mph24.1 kmh 29.82 in1009.8 mb 0.00 in0.0 mm 0.00 in/hr0.0 mm/hr 1.70 in43.2 mm
11:35 AM 84.5°F29.2°C 47.7°F8.7°C 28% 12.0 mph SW19.3 kmh SW 16.0 mph25.7 kmh 29.82 in1009.8 mb 0.00 in0.0 mm 0.00 in/hr0.0 mm/hr 1.70 in43.2 mm
11:40 AM 85.3°F29.6°C 49.4°F9.7°C 29% 7.0 mph SW11.3 kmh SW 15.0 mph24.1 kmh 29.82 in1009.8 mb 0.00 in0.0 mm 0.00 in/hr0.0 mm/hr 1.70 in43.2 mm
11:45 AM 85.7°F29.8°C 48.8°F9.3°C 28% 13.0 mph WSW20.9 kmh WSW 18.0 mph29.0 kmh 29.82 in1009.8 mb 0.00 in0.0 mm 0.00 in/hr0.0 mm/hr 1.70 in43.2 mm
11:50 AM 86.7°F30.4°C 48.6°F9.2°C 27% 6.0 mph WSW9.7 kmh WSW 16.0 mph25.7 kmh 29.82 in1009.8 mb 0.00 in0.0 mm 0.00 in/hr0.0 mm/hr 1.70 in43.2 mm
11:55 AM 87.2°F30.7°C 49.1°F9.5°C 27% 5.0 mph SSW8.0 kmh SSW 17.0 mph27.4 kmh 29.82 in1009.8 mb 0.00 in0.0 mm 0.00 in/hr0.0 mm/hr 1.70 in43.2 mm
12:00 PM 87.8°F31.0°C 50.5°F10.3°C 28% 12.0 mph WSW19.3 kmh WSW 17.0 mph27.4 kmh 29.82 in1009.8 mb 0.00 in0.0 mm 0.00 in/hr0.0 mm/hr 1.70 in43.2 mm
12:05 PM 88.0°F31.1°C 49.7°F9.8°C 27% 12.0 mph SW19.3 kmh SW 19.0 mph30.6 kmh 29.82 in1009.8 mb 0.00 in0.0 mm 0.00 in/hr0.0 mm/hr 1.70 in43.2 mm
12:10 PM 87.0°F30.6°C 50.8°F10.4°C 29% 12.0 mph WSW19.3 kmh WSW 20.0 mph32.2 kmh 29.82 in1009.8 mb 0.00 in0.0 mm 0.00 in/hr0.0 mm/hr 1.70 in43.2 mm
12:15 PM 86.7°F30.4°C 50.6°F10.3°C 29% 16.0 mph WSW25.7 kmh WSW 18.0 mph29.0 kmh 29.83 in1010.2 mb 0.00 in0.0 mm 0.00 in/hr0.0 mm/hr 1.70 in43.2 mm
12:20 PM 86.1°F30.1°C 51.8°F11.0°C 31% 5.0 mph SSW8.0 kmh SSW 16.0 mph25.7 kmh 29.83 in1010.2 mb 0.00 in0.0 mm 0.00 in/hr0.0 mm/hr 1.70 in43.2 mm
12:25 PM 85.3°F29.6°C 53.7°F12.1°C 34% 9.0 mph S14.5 kmh S 20.0 mph32.2 kmh 29.83 in1010.2 mb 0.00 in0.0 mm 0.00 in/hr0.0 mm/hr 1.70 in43.2 mm
12:30 PM 85.7°F29.8°C 54.0°F12.2°C 34% 9.0 mph S14.5 kmh S 18.0 mph29.0 kmh 29.82 in1009.8 mb 0.00 in0.0 mm 0.00 in/hr0.0 mm/hr 1.70 in43.2 mm
12:35 PM 85.9°F29.9°C 54.2°F12.3°C 34% 10.0 mph SW16.1 kmh SW 17.0 mph27.4 kmh 29.82 in1009.8 mb 0.00 in0.0 mm 0.00 in/hr0.0 mm/hr 1.70 in43.2 mm
12:40 PM 85.5°F29.7°C 53.8°F12.1°C 34% 13.0 mph WSW20.9 kmh WSW 19.0 mph30.6 kmh 29.82 in1009.8 mb 0.00 in0.0 mm 0.00 in/hr0.0 mm/hr 1.70 in43.2 mm
12:45 PM 86.1°F30.1°C 55.2°F12.9°C 35% 6.0 mph WSW9.7 kmh WSW 16.0 mph25.7 kmh 29.82 in1009.8 mb 0.00 in0.0 mm 0.00 in/hr0.0 mm/hr 1.70 in43.2 mm
12:50 PM 86.3°F30.2°C 53.7°F12.1°C 33% 10.0 mph SSW16.1 kmh SSW 19.0 mph30.6 kmh 29.82 in1009.8 mb 0.00 in0.0 mm 0.00 in/hr0.0 mm/hr 1.70 in43.2 mm
01:00 PM 87.0°F30.6°C 51.7°F10.9°C 30% 6.0 mph SW9.7 kmh SW 18.0 mph29.0 kmh 29.83 in1010.2 mb 0.00 in0.0 mm 0.00 in/hr0.0 mm/hr 1.70 in43.2 mm
01:05 PM 88.0°F31.1°C 52.6°F11.4°C 30% 9.0 mph S14.5 kmh S 16.0 mph25.7 kmh 29.83 in1010.2 mb 0.00 in0.0 mm 0.00 in/hr0.0 mm/hr 1.70 in43.2 mm
01:10 PM 88.2°F31.2°C 51.8°F11.0°C 29% 15.0 mph SW24.1 kmh SW 19.0 mph30.6 kmh 29.83 in1010.2 mb 0.00 in0.0 mm 0.00 in/hr0.0 mm/hr 1.70 in43.2 mm
01:15 PM 88.2°F31.2°C 50.9°F10.5°C 28% 9.0 mph WSW14.5 kmh WSW 20.0 mph32.2 kmh 29.82 in1009.8 mb 0.00 in0.0 mm 0.00 in/hr0.0 mm/hr 1.70 in43.2 mm
01:20 PM 88.4°F31.3°C 52.0°F11.1°C 29% 13.0 mph WSW20.9 kmh WSW 14.0 mph22.5 kmh 29.82 in1009.8 mb 0.00 in0.0 mm 0.00 in/hr0.0 mm/hr 1.70 in43.2 mm
01:25 PM 88.6°F31.4°C 51.2°F10.7°C 28% 4.0 mph SW6.4 kmh SW 17.0 mph27.4 kmh 29.82 in1009.8 mb 0.00 in0.0 mm 0.00 in/hr0.0 mm/hr 1.70 in43.2 mm
01:30 PM 89.0°F31.7°C 51.6°F10.9°C 28% 10.0 mph WSW16.1 kmh WSW 12.0 mph19.3 kmh 29.82 in1009.8 mb 0.00 in0.0 mm 0.00 in/hr0.0 mm/hr 1.70 in43.2 mm
01:35 PM 89.0°F31.7°C 51.6°F10.9°C 28% 3.0 mph SSE4.8 kmh SSE 14.0 mph22.5 kmh 29.82 in1009.8 mb 0.00 in0.0 mm 0.00 in/hr0.0 mm/hr 1.70 in43.2 mm
01:40 PM 88.8°F31.6°C 51.4°F10.8°C 28% 7.0 mph SSW11.3 kmh SSW 14.0 mph22.5 kmh 29.82 in1009.8 mb 0.00 in0.0 mm 0.00 in/hr0.0 mm/hr 1.70 in43.2 mm
01:45 PM 89.0°F31.7°C 50.6°F10.3°C 27% 9.0 mph SSW14.5 kmh SSW 16.0 mph25.7 kmh 29.82 in1009.8 mb 0.00 in0.0 mm 0.00 in/hr0.0 mm/hr 1.70 in43.2 mm
01:50 PM 89.3°F31.8°C 50.8°F10.4°C 27% 3.0 mph S4.8 kmh S 14.0 mph22.5 kmh 29.82 in1009.8 mb 0.00 in0.0 mm 0.00 in/hr0.0 mm/hr 1.70 in43.2 mm
01:55 PM 89.3°F31.8°C 51.8°F11.0°C 28% 5.0 mph SSW8.0 kmh SSW 13.0 mph20.9 kmh 29.82 in1009.8 mb 0.00 in0.0 mm 0.00 in/hr0.0 mm/hr 1.70 in43.2 mm
02:00 PM 88.8°F31.6°C 50.4°F10.2°C 27% 5.0 mph SSE8.0 kmh SSE 15.0 mph24.1 kmh 29.81 in1009.5 mb 0.00 in0.0 mm 0.00 in/hr0.0 mm/hr 1.70 in43.2 mm
02:05 PM 88.4°F31.3°C 51.1°F10.6°C 28% 7.0 mph SSE11.3 kmh SSE 15.0 mph24.1 kmh 29.81 in1009.5 mb 0.00 in0.0 mm 0.00 in/hr0.0 mm/hr 1.70 in43.2 mm
02:10 PM 88.4°F31.3°C 50.1°F10.1°C 27% 13.0 mph SW20.9 kmh SW 16.0 mph25.7 kmh 29.81 in1009.5 mb 0.00 in0.0 mm 0.00 in/hr0.0 mm/hr 1.70 in43.2 mm
02:15 PM 89.0°F31.7°C 51.6°F10.9°C 28% 5.0 mph SW8.0 kmh SW 15.0 mph24.1 kmh 29.82 in1009.8 mb 0.00 in0.0 mm 0.00 in/hr0.0 mm/hr 1.70 in43.2 mm
02:20 PM 89.9°F32.2°C 51.3°F10.7°C 27% 7.0 mph SSE11.3 kmh SSE 12.0 mph19.3 kmh 29.82 in1009.8 mb 0.00 in0.0 mm 0.00 in/hr0.0 mm/hr 1.70 in43.2 mm
02:25 PM 89.3°F31.8°C 51.8°F11.0°C 28% 11.0 mph SW17.7 kmh SW 15.0 mph24.1 kmh 29.82 in1009.8 mb 0.00 in0.0 mm 0.00 in/hr0.0 mm/hr 1.70 in43.2 mm
02:30 PM 89.3°F31.8°C 51.8°F11.0°C 28% 5.0 mph SSW8.0 kmh SSW 16.0 mph25.7 kmh 29.82 in1009.8 mb 0.00 in0.0 mm 0.00 in/hr0.0 mm/hr 1.70 in43.2 mm
02:35 PM 89.0°F31.7°C 51.6°F10.9°C 28% 14.0 mph SW22.5 kmh SW 14.0 mph22.5 kmh 29.82 in1009.8 mb 0.00 in0.0 mm 0.00 in/hr0.0 mm/hr 1.70 in43.2 mm
02:40 PM 89.7°F32.1°C 52.2°F11.2°C 28% 11.0 mph SW17.7 kmh SW 15.0 mph24.1 kmh 29.82 in1009.8 mb 0.00 in0.0 mm 0.00 in/hr0.0 mm/hr 1.70 in43.2 mm
02:45 PM 89.0°F31.7°C 52.5°F11.4°C 29% 7.0 mph S11.3 kmh S 16.0 mph25.7 kmh 29.81 in1009.5 mb 0.00 in0.0 mm 0.00 in/hr0.0 mm/hr 1.70 in43.2 mm
02:50 PM 89.3°F31.8°C 52.8°F11.6°C 29% 6.0 mph S9.7 kmh S 15.0 mph24.1 kmh 29.81 in1009.5 mb 0.00 in0.0 mm 0.00 in/hr0.0 mm/hr 1.70 in43.2 mm
02:55 PM 89.3°F31.8°C 52.8°F11.6°C 29% 6.0 mph SSW9.7 kmh SSW 16.0 mph25.7 kmh 29.81 in1009.5 mb 0.00 in0.0 mm 0.00 in/hr0.0 mm/hr 1.70 in43.2 mm
03:00 PM 89.5°F31.9°C 52.0°F11.1°C 28% 10.0 mph S16.1 kmh S 14.0 mph22.5 kmh 29.81 in1009.5 mb 0.00 in0.0 mm 0.00 in/hr0.0 mm/hr 1.70 in43.2 mm
03:05 PM 89.0°F31.7°C 51.6°F10.9°C 28% 6.0 mph S9.7 kmh S 13.0 mph20.9 kmh 29.81 in1009.5 mb 0.00 in0.0 mm 0.00 in/hr0.0 mm/hr 1.70 in43.2 mm
03:10 PM 89.3°F31.8°C 52.8°F11.6°C 29% 7.0 mph S11.3 kmh S 14.0 mph22.5 kmh 29.81 in1009.5 mb 0.00 in0.0 mm 0.00 in/hr0.0 mm/hr 1.70 in43.2 mm
03:15 PM 88.6°F31.4°C 51.2°F10.7°C 28% 5.0 mph SSE8.0 kmh SSE 18.0 mph29.0 kmh 29.81 in1009.5 mb 0.00 in0.0 mm 0.00 in/hr0.0 mm/hr 1.70 in43.2 mm
03:20 PM 88.8°F31.6°C 52.4°F11.3°C 29% 5.0 mph S8.0 kmh S 11.0 mph17.7 kmh 29.81 in1009.5 mb 0.00 in0.0 mm 0.00 in/hr0.0 mm/hr 1.70 in43.2 mm
03:25 PM 88.6°F31.4°C 52.2°F11.2°C 29% 4.0 mph S6.4 kmh S 11.0 mph17.7 kmh 29.81 in1009.5 mb 0.00 in0.0 mm 0.00 in/hr0.0 mm/hr 1.70 in43.2 mm
03:30 PM 88.4°F31.3°C 52.9°F11.6°C 30% 4.0 mph SSE6.4 kmh SSE 13.0 mph20.9 kmh 29.81 in1009.5 mb 0.00 in0.0 mm 0.00 in/hr0.0 mm/hr 1.70 in43.2 mm
03:35 PM 88.4°F31.3°C 53.8°F12.1°C 31% 9.0 mph SW14.5 kmh SW 18.0 mph29.0 kmh 29.81 in1009.5 mb 0.00 in0.0 mm 0.00 in/hr0.0 mm/hr 1.70 in43.2 mm
03:40 PM 88.6°F31.4°C 53.1°F11.7°C 30% 6.0 mph SSW9.7 kmh SSW 16.0 mph25.7 kmh 29.81 in1009.5 mb 0.00 in0.0 mm 0.00 in/hr0.0 mm/hr 1.70 in43.2 mm
03:45 PM 88.8°F31.6°C 54.2°F12.3°C 31% 3.0 mph S4.8 kmh S 13.0 mph20.9 kmh 29.81 in1009.5 mb 0.00 in0.0 mm 0.00 in/hr0.0 mm/hr 1.70 in43.2 mm
03:50 PM 89.0°F31.7°C 54.3°F12.4°C 31% Calm Calm 11.0 mph17.7 kmh 29.81 in1009.5 mb 0.00 in0.0 mm 0.00 in/hr0.0 mm/hr 1.70 in43.2 mm
03:55 PM 88.4°F31.3°C 54.7°F12.6°C 32% 5.0 mph S8.0 kmh S 15.0 mph24.1 kmh 29.81 in1009.5 mb 0.00 in0.0 mm 0.00 in/hr0.0 mm/hr 1.70 in43.2 mm
04:00 PM 88.6°F31.4°C 53.1°F11.7°C 30% 3.0 mph S4.8 kmh S 10.0 mph16.1 kmh 29.81 in1009.5 mb 0.00 in0.0 mm 0.00 in/hr0.0 mm/hr 1.70 in43.2 mm
04:05 PM 89.0°F31.7°C 55.2°F12.9°C 32% 6.0 mph SW9.7 kmh SW 9.0 mph14.5 kmh 29.81 in1009.5 mb 0.00 in0.0 mm 0.00 in/hr0.0 mm/hr 1.70 in43.2 mm
04:10 PM 88.8°F31.6°C 53.3°F11.8°C 30% 4.0 mph SW6.4 kmh SW 15.0 mph24.1 kmh 29.81 in1009.5 mb 0.00 in0.0 mm 0.00 in/hr0.0 mm/hr 1.70 in43.2 mm
04:15 PM 89.0°F31.7°C 53.4°F11.9°C 30% 10.0 mph SW16.1 kmh SW 14.0 mph22.5 kmh 29.81 in1009.5 mb 0.00 in0.0 mm 0.00 in/hr0.0 mm/hr 1.70 in43.2 mm
04:20 PM 88.8°F31.6°C 53.3°F11.8°C 30% 1.0 mph S1.6 kmh S 15.0 mph24.1 kmh 29.81 in1009.5 mb 0.00 in0.0 mm 0.00 in/hr0.0 mm/hr 1.70 in43.2 mm
04:25 PM 88.6°F31.4°C 52.2°F11.2°C 29% 12.0 mph S19.3 kmh S 14.0 mph22.5 kmh 29.81 in1009.5 mb 0.00 in0.0 mm 0.00 in/hr0.0 mm/hr 1.70 in43.2 mm
04:30 PM 88.4°F31.3°C 54.7°F12.6°C 32% 6.0 mph SSE9.7 kmh SSE 14.0 mph22.5 kmh 29.81 in1009.5 mb 0.00 in0.0 mm 0.00 in/hr0.0 mm/hr 1.70 in43.2 mm
04:35 PM 87.8°F31.0°C 55.0°F12.8°C 33% 3.0 mph S4.8 kmh S 12.0 mph19.3 kmh 29.81 in1009.5 mb 0.00 in0.0 mm 0.00 in/hr0.0 mm/hr 1.70 in43.2 mm
04:40 PM 88.0°F31.1°C 55.2°F12.9°C 33% 7.0 mph S11.3 kmh S 14.0 mph22.5 kmh 29.81 in1009.5 mb 0.00 in0.0 mm 0.00 in/hr0.0 mm/hr 1.70 in43.2 mm
04:45 PM 88.2°F31.2°C 55.4°F13.0°C 33% 3.0 mph SSW4.8 kmh SSW 14.0 mph22.5 kmh 29.81 in1009.5 mb 0.00 in0.0 mm 0.00 in/hr0.0 mm/hr 1.70 in43.2 mm
04:55 PM 87.8°F31.0°C 55.8°F13.2°C 34% 3.0 mph SE4.8 kmh SE 14.0 mph22.5 kmh 29.81 in1009.5 mb 0.00 in0.0 mm 0.00 in/hr0.0 mm/hr 1.70 in43.2 mm
05:00 PM 87.4°F30.8°C 55.5°F13.1°C 34% 5.0 mph SE8.0 kmh SE 15.0 mph24.1 kmh 29.80 in1009.1 mb 0.00 in0.0 mm 0.00 in/hr0.0 mm/hr 1.70 in43.2 mm
05:05 PM 87.4°F30.8°C 55.5°F13.1°C 34% 5.0 mph SSE8.0 kmh SSE 13.0 mph20.9 kmh 29.80 in1009.1 mb 0.00 in0.0 mm 0.00 in/hr0.0 mm/hr 1.70 in43.2 mm
05:10 PM 87.2°F30.7°C 56.1°F13.4°C 35% 5.0 mph S8.0 kmh S 13.0 mph20.9 kmh 29.80 in1009.1 mb 0.00 in0.0 mm 0.00 in/hr0.0 mm/hr 1.70 in43.2 mm
05:15 PM 87.0°F30.6°C 55.9°F13.3°C 35% 9.0 mph SSE14.5 kmh SSE 12.0 mph19.3 kmh 29.80 in1009.1 mb 0.00 in0.0 mm 0.00 in/hr0.0 mm/hr 1.70 in43.2 mm
05:20 PM 86.7°F30.4°C 55.7°F13.2°C 35% 14.0 mph SW22.5 kmh SW 15.0 mph24.1 kmh 29.80 in1009.1 mb 0.00 in0.0 mm 0.00 in/hr0.0 mm/hr 1.70 in43.2 mm
05:25 PM 86.7°F30.4°C 55.7°F13.2°C 35% 6.0 mph S9.7 kmh S 15.0 mph24.1 kmh 29.80 in1009.1 mb 0.00 in0.0 mm 0.00 in/hr0.0 mm/hr 1.70 in43.2 mm
05:30 PM 87.0°F30.6°C 55.9°F13.3°C 35% 12.0 mph SE19.3 kmh SE 12.0 mph19.3 kmh 29.80 in1009.1 mb 0.00 in0.0 mm 0.00 in/hr0.0 mm/hr 1.70 in43.2 mm
05:35 PM 87.0°F30.6°C 55.9°F13.3°C 35% 6.0 mph S9.7 kmh S 14.0 mph22.5 kmh 29.80 in1009.1 mb 0.00 in0.0 mm 0.00 in/hr0.0 mm/hr 1.70 in43.2 mm
05:40 PM 86.7°F30.4°C 55.7°F13.2°C 35% 1.0 mph SSW1.6 kmh SSW 12.0 mph19.3 kmh 29.80 in1009.1 mb 0.00 in0.0 mm 0.00 in/hr0.0 mm/hr 1.70 in43.2 mm
05:45 PM 86.7°F30.4°C 55.7°F13.2°C 35% 5.0 mph S8.0 kmh S 11.0 mph17.7 kmh 29.79 in1008.8 mb 0.00 in0.0 mm 0.00 in/hr0.0 mm/hr 1.70 in43.2 mm
05:50 PM 86.5°F30.3°C 56.3°F13.5°C 36% 10.0 mph SSE16.1 kmh SSE 12.0 mph19.3 kmh 29.79 in1008.8 mb 0.00 in0.0 mm 0.00 in/hr0.0 mm/hr 1.70 in43.2 mm
05:55 PM 86.7°F30.4°C 56.5°F13.6°C 36% 3.0 mph S4.8 kmh S 10.0 mph16.1 kmh 29.79 in1008.8 mb 0.00 in0.0 mm 0.00 in/hr0.0 mm/hr 1.70 in43.2 mm
06:00 PM 86.5°F30.3°C 56.3°F13.5°C 36% 3.0 mph S4.8 kmh S 12.0 mph19.3 kmh 29.79 in1008.8 mb 0.00 in0.0 mm 0.00 in/hr0.0 mm/hr 1.70 in43.2 mm
06:05 PM 86.3°F30.2°C 56.9°F13.8°C 37% 1.0 mph S1.6 kmh S 7.0 mph11.3 kmh 29.79 in1008.8 mb 0.00 in0.0 mm 0.00 in/hr0.0 mm/hr 1.70 in43.2 mm
06:10 PM 85.9°F29.9°C 56.5°F13.6°C 37% 4.0 mph S6.4 kmh S 13.0 mph20.9 kmh 29.79 in1008.8 mb 0.00 in0.0 mm 0.00 in/hr0.0 mm/hr 1.70 in43.2 mm
06:15 PM 85.5°F29.7°C 56.9°F13.8°C 38% 2.0 mph SSW3.2 kmh SSW 11.0 mph17.7 kmh 29.80 in1009.1 mb 0.00 in0.0 mm 0.00 in/hr0.0 mm/hr 1.70 in43.2 mm
06:20 PM 84.9°F29.4°C 57.1°F13.9°C 39% 6.0 mph S9.7 kmh S 12.0 mph19.3 kmh 29.80 in1009.1 mb 0.00 in0.0 mm 0.00 in/hr0.0 mm/hr 1.70 in43.2 mm
06:25 PM 84.5°F29.2°C 57.4°F14.1°C 40% 4.0 mph SSW6.4 kmh SSW 7.0 mph11.3 kmh 29.80 in1009.1 mb 0.00 in0.0 mm 0.00 in/hr0.0 mm/hr 1.70 in43.2 mm
06:30 PM 84.3°F29.1°C 58.0°F14.4°C 41% 1.0 mph S1.6 kmh S 5.0 mph8.0 kmh 29.80 in1009.1 mb 0.00 in0.0 mm 0.00 in/hr0.0 mm/hr 1.70 in43.2 mm
06:35 PM 84.0°F28.9°C 58.4°F14.7°C 42% 1.0 mph S1.6 kmh S 4.0 mph6.4 kmh 29.80 in1009.1 mb 0.00 in0.0 mm 0.00 in/hr0.0 mm/hr 1.70 in43.2 mm
06:40 PM 83.8°F28.8°C 58.8°F14.9°C 43% 2.0 mph S3.2 kmh S 5.0 mph8.0 kmh 29.80 in1009.1 mb 0.00 in0.0 mm 0.00 in/hr0.0 mm/hr 1.70 in43.2 mm
06:45 PM 83.4°F28.6°C 59.1°F15.1°C 44% Calm Calm 7.0 mph11.3 kmh 29.81 in1009.5 mb 0.00 in0.0 mm 0.00 in/hr0.0 mm/hr 1.70 in43.2 mm
06:50 PM 83.0°F28.3°C 58.8°F14.9°C 44% 2.0 mph ESE3.2 kmh ESE 10.0 mph16.1 kmh 29.81 in1009.5 mb 0.00 in0.0 mm 0.00 in/hr0.0 mm/hr 1.70 in43.2 mm
06:55 PM 82.8°F28.2°C 59.2°F15.1°C 45% 3.0 mph S4.8 kmh S 11.0 mph17.7 kmh 29.81 in1009.5 mb 0.00 in0.0 mm 0.00 in/hr0.0 mm/hr 1.70 in43.2 mm
07:00 PM 82.4°F28.0°C 59.5°F15.3°C 46% 3.0 mph S4.8 kmh S 11.0 mph17.7 kmh 29.81 in1009.5 mb 0.00 in0.0 mm 0.00 in/hr0.0 mm/hr 1.70 in43.2 mm
07:05 PM 82.2°F27.9°C 59.9°F15.5°C 47% 7.0 mph SE11.3 kmh SE 10.0 mph16.1 kmh 29.81 in1009.5 mb 0.00 in0.0 mm 0.00 in/hr0.0 mm/hr 1.70 in43.2 mm
07:10 PM 81.8°F27.7°C 60.1°F15.6°C 48% 2.0 mph SE3.2 kmh SE 10.0 mph16.1 kmh 29.81 in1009.5 mb 0.00 in0.0 mm 0.00 in/hr0.0 mm/hr 1.70 in43.2 mm
07:15 PM 81.6°F27.6°C 59.9°F15.5°C 48% 2.0 mph S3.2 kmh S 9.0 mph14.5 kmh 29.82 in1009.8 mb 0.00 in0.0 mm 0.00 in/hr0.0 mm/hr 1.70 in43.2 mm
07:20 PM 81.4°F27.4°C 59.7°F15.4°C 48% 2.0 mph S3.2 kmh S 9.0 mph14.5 kmh 29.82 in1009.8 mb 0.00 in0.0 mm 0.00 in/hr0.0 mm/hr 1.70 in43.2 mm
07:25 PM 81.1°F27.3°C 60.1°F15.6°C 49% 4.0 mph S6.4 kmh S 9.0 mph14.5 kmh 29.82 in1009.8 mb 0.00 in0.0 mm 0.00 in/hr0.0 mm/hr 1.70 in43.2 mm
07:30 PM 80.9°F27.2°C 59.9°F15.5°C 49% 5.0 mph SSW8.0 kmh SSW 11.0 mph17.7 kmh 29.84 in1010.5 mb 0.00 in0.0 mm 0.00 in/hr0.0 mm/hr 1.70 in43.2 mm
07:35 PM 80.7°F27.1°C 60.3°F15.7°C 50% Calm Calm 4.0 mph6.4 kmh 29.84 in1010.5 mb 0.00 in0.0 mm 0.00 in/hr0.0 mm/hr 1.70 in43.2 mm
07:40 PM 80.5°F26.9°C 60.1°F15.6°C 50% 3.0 mph S4.8 kmh S 6.0 mph9.7 kmh 29.84 in1010.5 mb 0.00 in0.0 mm 0.00 in/hr0.0 mm/hr 1.70 in43.2 mm
07:45 PM 80.5°F26.9°C 60.1°F15.6°C 50% 2.0 mph S3.2 kmh S 5.0 mph8.0 kmh 29.86 in1011.2 mb 0.00 in0.0 mm 0.00 in/hr0.0 mm/hr 1.70 in43.2 mm
07:50 PM 80.3°F26.8°C 59.9°F15.5°C 50% 2.0 mph S3.2 kmh S 4.0 mph6.4 kmh 29.86 in1011.2 mb 0.00 in0.0 mm 0.00 in/hr0.0 mm/hr 1.70 in43.2 mm
07:55 PM 80.3°F26.8°C 59.9°F15.5°C 50% Calm Calm 4.0 mph6.4 kmh 29.86 in1011.2 mb 0.00 in0.0 mm 0.00 in/hr0.0 mm/hr 1.70 in43.2 mm
08:00 PM 80.1°F26.7°C 60.3°F15.7°C 51% 1.0 mph S1.6 kmh S 2.0 mph3.2 kmh 29.87 in1011.5 mb 0.00 in0.0 mm 0.00 in/hr0.0 mm/hr 1.70 in43.2 mm
08:05 PM 79.9°F26.6°C 60.1°F15.6°C 51% Calm Calm 1.0 mph1.6 kmh 29.87 in1011.5 mb 0.00 in0.0 mm 0.00 in/hr0.0 mm/hr 1.70 in43.2 mm
08:10 PM 79.8°F26.6°C 60.0°F15.6°C 51% Calm Calm 5.0 mph8.0 kmh 29.87 in1011.5 mb 0.00 in0.0 mm 0.00 in/hr0.0 mm/hr 1.70 in43.2 mm
08:15 PM 79.8°F26.6°C 60.0°F15.6°C 51% 1.0 mph SE1.6 kmh SE 4.0 mph6.4 kmh 29.87 in1011.5 mb 0.00 in0.0 mm 0.00 in/hr0.0 mm/hr 1.70 in43.2 mm
08:20 PM 79.8°F26.6°C 60.5°F15.8°C 52% 2.0 mph SE3.2 kmh SE 4.0 mph6.4 kmh 29.87 in1011.5 mb 0.00 in0.0 mm 0.00 in/hr0.0 mm/hr 1.70 in43.2 mm
08:25 PM 79.4°F26.3°C 60.2°F15.7°C 52% 3.0 mph S4.8 kmh S 6.0 mph9.7 kmh 29.87 in1011.5 mb 0.00 in0.0 mm 0.00 in/hr0.0 mm/hr 1.70 in43.2 mm
08:30 PM 79.0°F26.1°C 60.3°F15.7°C 53% 2.0 mph S3.2 kmh S 5.0 mph8.0 kmh 29.86 in1011.2 mb 0.00 in0.0 mm 0.00 in/hr0.0 mm/hr 1.70 in43.2 mm
08:35 PM 78.6°F25.9°C 60.5°F15.8°C 54% Calm Calm 4.0 mph6.4 kmh 29.86 in1011.2 mb 0.00 in0.0 mm 0.00 in/hr0.0 mm/hr 1.70 in43.2 mm
08:40 PM 78.5°F25.8°C 60.4°F15.8°C 54% 7.0 mph SSW11.3 kmh SSW 7.0 mph11.3 kmh 29.86 in1011.2 mb 0.00 in0.0 mm 0.00 in/hr0.0 mm/hr 1.70 in43.2 mm
08:45 PM 78.1°F25.6°C 60.5°F15.8°C 55% 4.0 mph S6.4 kmh S 11.0 mph17.7 kmh 29.84 in1010.5 mb 0.00 in0.0 mm 0.00 in/hr0.0 mm/hr 1.70 in43.2 mm
08:50 PM 77.7°F25.4°C 60.7°F15.9°C 56% 3.0 mph SSE4.8 kmh SSE 10.0 mph16.1 kmh 29.84 in1010.5 mb 0.00 in0.0 mm 0.00 in/hr0.0 mm/hr 1.70 in43.2 mm
08:55 PM 77.6°F25.3°C 60.6°F15.9°C 56% 6.0 mph S9.7 kmh S 11.0 mph17.7 kmh 29.84 in1010.5 mb 0.00 in0.0 mm 0.00 in/hr0.0 mm/hr 1.70 in43.2 mm
09:00 PM 77.4°F25.2°C 60.9°F16.1°C 57% 3.0 mph S4.8 kmh S 11.0 mph17.7 kmh 29.83 in1010.2 mb 0.00 in0.0 mm 0.00 in/hr0.0 mm/hr 1.70 in43.2 mm
09:05 PM 77.2°F25.1°C 60.7°F15.9°C 57% 8.0 mph S12.9 kmh S 9.0 mph14.5 kmh 29.83 in1010.2 mb 0.00 in0.0 mm 0.00 in/hr0.0 mm/hr 1.70 in43.2 mm
09:10 PM 77.0°F25.0°C 60.5°F15.8°C 57% 10.0 mph S16.1 kmh S 11.0 mph17.7 kmh 29.83 in1010.2 mb 0.00 in0.0 mm 0.00 in/hr0.0 mm/hr 1.70 in43.2 mm
09:15 PM 77.0°F25.0°C 60.5°F15.8°C 57% 8.0 mph SSW12.9 kmh SSW 11.0 mph17.7 kmh 29.81 in1009.5 mb 0.00 in0.0 mm 0.00 in/hr0.0 mm/hr 1.70 in43.2 mm
09:20 PM 76.8°F24.9°C 60.8°F16.0°C 58% 4.0 mph SW6.4 kmh SW 9.0 mph14.5 kmh 29.81 in1009.5 mb 0.00 in0.0 mm 0.00 in/hr0.0 mm/hr 1.70 in43.2 mm
09:25 PM 76.7°F24.8°C 60.7°F15.9°C 58% 6.0 mph S9.7 kmh S 12.0 mph19.3 kmh 29.81 in1009.5 mb 0.00 in0.0 mm 0.00 in/hr0.0 mm/hr 1.70 in43.2 mm
09:30 PM 76.7°F24.8°C 60.7°F15.9°C 58% 3.0 mph SW4.8 kmh SW 11.0 mph17.7 kmh 29.82 in1009.8 mb 0.00 in0.0 mm 0.00 in/hr0.0 mm/hr 1.70 in43.2 mm
09:35 PM 76.5°F24.7°C 60.6°F15.9°C 58% 11.0 mph SW17.7 kmh SW 14.0 mph22.5 kmh 29.82 in1009.8 mb 0.00 in0.0 mm 0.00 in/hr0.0 mm/hr 1.70 in43.2 mm
09:40 PM 76.5°F24.7°C 60.6°F15.9°C 58% 5.0 mph SSE8.0 kmh SSE 22.0 mph35.4 kmh 29.82 in1009.8 mb 0.00 in0.0 mm 0.00 in/hr0.0 mm/hr 1.70 in43.2 mm
09:45 PM 76.3°F24.6°C 60.4°F15.8°C 58% 6.0 mph WSW9.7 kmh WSW 13.0 mph20.9 kmh 29.83 in1010.2 mb 0.00 in0.0 mm 0.00 in/hr0.0 mm/hr 1.70 in43.2 mm
09:50 PM 76.1°F24.5°C 60.2°F15.7°C 58% 3.0 mph WSW4.8 kmh WSW 16.0 mph25.7 kmh 29.83 in1010.2 mb 0.00 in0.0 mm 0.00 in/hr0.0 mm/hr 1.70 in43.2 mm
09:55 PM 76.1°F24.5°C 60.2°F15.7°C 58% 7.0 mph SSE11.3 kmh SSE 16.0 mph25.7 kmh 29.83 in1010.2 mb 0.00 in0.0 mm 0.00 in/hr0.0 mm/hr 1.70 in43.2 mm
10:00 PM 75.8°F24.3°C 60.4°F15.8°C 59% 10.0 mph SSW16.1 kmh SSW 15.0 mph24.1 kmh 29.83 in1010.2 mb 0.00 in0.0 mm 0.00 in/hr0.0 mm/hr 1.70 in43.2 mm
10:05 PM 75.8°F24.3°C 60.4°F15.8°C 59% 4.0 mph S6.4 kmh S 15.0 mph24.1 kmh 29.83 in1010.2 mb 0.00 in0.0 mm 0.00 in/hr0.0 mm/hr 1.70 in43.2 mm
10:10 PM 75.6°F24.2°C 60.2°F15.7°C 59% 7.0 mph SW11.3 kmh SW 17.0 mph27.4 kmh 29.83 in1010.2 mb 0.00 in0.0 mm 0.00 in/hr0.0 mm/hr 1.70 in43.2 mm
10:15 PM 75.4°F24.1°C 60.0°F15.6°C 59% 3.0 mph SW4.8 kmh SW 16.0 mph25.7 kmh 29.85 in1010.8 mb 0.00 in0.0 mm 0.00 in/hr0.0 mm/hr 1.70 in43.2 mm
10:20 PM 75.3°F24.1°C 60.4°F15.8°C 60% 3.0 mph SE4.8 kmh SE 9.0 mph14.5 kmh 29.85 in1010.8 mb 0.00 in0.0 mm 0.00 in/hr0.0 mm/hr 1.70 in43.2 mm
10:25 PM 75.1°F23.9°C 60.2°F15.7°C 60% 4.0 mph S6.4 kmh S 9.0 mph14.5 kmh 29.85 in1010.8 mb 0.00 in0.0 mm 0.00 in/hr0.0 mm/hr 1.70 in43.2 mm
10:30 PM 74.9°F23.8°C 60.5°F15.8°C 61% 5.0 mph S8.0 kmh S 10.0 mph16.1 kmh 29.86 in1011.2 mb 0.00 in0.0 mm 0.00 in/hr0.0 mm/hr 1.70 in43.2 mm
10:35 PM 74.6°F23.7°C 60.7°F15.9°C 62% 6.0 mph SSW9.7 kmh SSW 9.0 mph14.5 kmh 29.86 in1011.2 mb 0.00 in0.0 mm 0.00 in/hr0.0 mm/hr 1.70 in43.2 mm
10:40 PM 74.6°F23.7°C 60.7°F15.9°C 62% 3.0 mph S4.8 kmh S 9.0 mph14.5 kmh 29.86 in1011.2 mb 0.00 in0.0 mm 0.00 in/hr0.0 mm/hr 1.70 in43.2 mm
10:45 PM 74.4°F23.6°C 60.9°F16.1°C 63% 3.0 mph S4.8 kmh S 9.0 mph14.5 kmh 29.87 in1011.5 mb 0.00 in0.0 mm 0.00 in/hr0.0 mm/hr 1.70 in43.2 mm
10:50 PM 74.2°F23.4°C 60.3°F15.7°C 62% 5.0 mph SSW8.0 kmh SSW 9.0 mph14.5 kmh 29.87 in1011.5 mb 0.00 in0.0 mm 0.00 in/hr0.0 mm/hr 1.70 in43.2 mm
10:55 PM 74.2°F23.4°C 60.7°F15.9°C 63% 4.0 mph SSW6.4 kmh SSW 9.0 mph14.5 kmh 29.87 in1011.5 mb 0.00 in0.0 mm 0.00 in/hr0.0 mm/hr 1.70 in43.2 mm
11:00 PM 74.0°F23.3°C 60.5°F15.8°C 63% 4.0 mph SW6.4 kmh SW 9.0 mph14.5 kmh 29.88 in1011.9 mb 0.00 in0.0 mm 0.00 in/hr0.0 mm/hr 1.70 in43.2 mm
11:05 PM 74.0°F23.3°C 60.5°F15.8°C 63% 3.0 mph S4.8 kmh S 7.0 mph11.3 kmh 29.88 in1011.9 mb 0.00 in0.0 mm 0.00 in/hr0.0 mm/hr 1.21 in30.7 mm
11:10 PM 73.7°F23.2°C 60.7°F15.9°C 64% 3.0 mph SSW4.8 kmh SSW 11.0 mph17.7 kmh 29.88 in1011.9 mb 0.00 in0.0 mm 0.00 in/hr0.0 mm/hr 1.21 in30.7 mm
11:15 PM 73.7°F23.2°C 60.7°F15.9°C 64% 8.0 mph SSE12.9 kmh SSE 10.0 mph16.1 kmh 29.85 in1010.8 mb 0.00 in0.0 mm 0.00 in/hr0.0 mm/hr 1.21 in30.7 mm
11:20 PM 73.5°F23.1°C 60.5°F15.8°C 64% 2.0 mph S3.2 kmh S 8.0 mph12.9 kmh 29.85 in1010.8 mb 0.00 in0.0 mm 0.00 in/hr0.0 mm/hr 1.21 in30.7 mm
11:25 PM 73.5°F23.1°C 60.5°F15.8°C 64% 1.0 mph SE1.6 kmh SE 9.0 mph14.5 kmh 29.85 in1010.8 mb 0.00 in0.0 mm 0.00 in/hr0.0 mm/hr 1.21 in30.7 mm
11:30 PM 73.3°F22.9°C 60.8°F16.0°C 65% 4.0 mph SSW6.4 kmh SSW 10.0 mph16.1 kmh 29.85 in1010.8 mb 0.00 in0.0 mm 0.00 in/hr0.0 mm/hr 1.21 in30.7 mm
11:35 PM 73.2°F22.9°C 60.7°F15.9°C 65% 3.0 mph S4.8 kmh S 7.0 mph11.3 kmh 29.85 in1010.8 mb 0.00 in0.0 mm 0.00 in/hr0.0 mm/hr 1.21 in30.7 mm
11:45 PM 72.8°F22.7°C 60.7°F15.9°C 66% 5.0 mph SSW8.0 kmh SSW 9.0 mph14.5 kmh 29.85 in1010.8 mb 0.00 in0.0 mm 0.00 in/hr0.0 mm/hr 1.21 in30.7 mm
11:50 PM 72.7°F22.6°C 60.6°F15.9°C 66% 4.0 mph S6.4 kmh S 9.0 mph14.5 kmh 29.85 in1010.8 mb 0.00 in0.0 mm 0.00 in/hr0.0 mm/hr 1.21 in30.7 mm
11:55 PM 72.5°F22.5°C 60.9°F16.1°C 67% 3.0 mph S4.8 kmh S 10.0 mph16.1 kmh 29.85 in1010.8 mb 0.00 in0.0 mm 0.00 in/hr0.0 mm/hr 1.21 in30.7 mm